createdAt,value
2018-09-06T00:02:21.471Z,17.60
2018-09-06T00:04:49.040Z,19.80
2018-09-06T00:07:16.572Z,15.80
2018-09-06T00:09:44.401Z,18.60
2018-09-06T00:12:11.895Z,20.80
2018-09-06T00:14:39.414Z,18.60
2018-09-06T00:17:06.988Z,24.60
2018-09-06T00:19:34.879Z,20.00
2018-09-06T00:22:02.438Z,21.00
2018-09-06T00:24:29.953Z,20.00
2018-09-06T00:26:57.806Z,22.00
2018-09-06T00:29:25.327Z,12.00
2018-09-06T00:31:52.853Z,22.80
2018-09-06T00:34:20.368Z,22.00
2018-09-06T00:36:48.371Z,19.00
2018-09-06T00:39:15.908Z,18.60
2018-09-06T00:41:43.430Z,19.60
2018-09-06T00:44:10.985Z,18.00
2018-09-06T00:46:38.823Z,19.40
2018-09-06T00:49:06.363Z,25.40
2018-09-06T00:51:33.959Z,22.20
2018-09-06T00:54:01.466Z,21.00
2018-09-06T00:56:29.550Z,24.00
2018-09-06T00:58:57.152Z,22.40
2018-09-06T01:01:24.704Z,19.00
2018-09-06T01:03:52.233Z,20.60
2018-09-06T01:06:20.234Z,22.00
2018-09-06T01:08:47.753Z,19.60
2018-09-06T01:11:15.294Z,16.40
2018-09-06T01:13:42.846Z,21.60
2018-09-06T01:16:10.865Z,24.20
2018-09-06T01:18:38.407Z,23.60
2018-09-06T01:21:06.623Z,19.60
2018-09-06T01:23:34.132Z,18.80
2018-09-06T01:26:02.143Z,16.00
2018-09-06T01:28:29.667Z,21.20
2018-09-06T01:30:57.175Z,20.60
2018-09-06T01:33:24.994Z,22.80
2018-09-06T01:35:57.714Z,21.20
2018-09-06T01:38:25.245Z,22.60
2018-09-06T01:40:52.794Z,24.00
2018-09-06T01:43:20.658Z,19.80
2018-09-06T01:45:48.181Z,22.80
2018-09-06T01:48:15.686Z,21.80
2018-09-06T01:50:43.231Z,21.00
2018-09-06T01:53:11.298Z,19.40
2018-09-06T01:55:38.861Z,23.60
2018-09-06T01:58:06.366Z,22.20
2018-09-06T02:00:33.867Z,15.80
2018-09-06T02:03:01.378Z,19.00
2018-09-06T02:05:35.860Z,20.60
2018-09-06T02:08:03.444Z,19.40
2018-09-06T02:10:31.392Z,19.80
2018-09-06T02:12:58.950Z,21.20
2018-09-06T02:15:26.498Z,18.60
2018-09-06T02:17:53.999Z,21.00
2018-09-06T02:20:21.818Z,22.80
2018-09-06T02:22:49.323Z,19.00
2018-09-06T02:25:16.915Z,24.00
2018-09-06T02:27:44.425Z,21.60
2018-09-06T02:30:12.382Z,20.60
2018-09-06T02:32:39.910Z,21.20
2018-09-06T02:35:07.448Z,21.00
2018-09-06T02:37:35.359Z,24.00
2018-09-06T02:40:02.896Z,21.80
2018-09-06T02:42:30.416Z,23.80
2018-09-06T02:44:58.370Z,22.60
2018-09-06T02:47:25.950Z,22.80
2018-09-06T02:49:58.513Z,21.40
2018-09-06T02:52:26.469Z,18.80
2018-09-06T02:54:54.956Z,23.40
2018-09-06T02:57:22.499Z,25.00
2018-09-06T02:59:50.062Z,25.20
2018-09-06T03:02:17.605Z,23.40
2018-09-06T03:04:45.232Z,21.80
2018-09-06T03:07:12.796Z,21.20
2018-09-06T03:09:40.809Z,24.20
2018-09-06T03:12:09.359Z,21.20
2018-09-06T03:14:36.937Z,19.00
2018-09-06T03:17:04.471Z,22.00
2018-09-06T03:19:32.489Z,19.40
2018-09-06T03:22:00.024Z,24.00
2018-09-06T03:24:27.840Z,19.80
2018-09-06T03:26:55.373Z,19.00
2018-09-06T03:29:23.339Z,19.80
2018-09-06T03:31:50.876Z,23.20
2018-09-06T03:34:18.442Z,22.00
2018-09-06T03:36:46.050Z,22.40
2018-09-06T03:39:13.880Z,24.40
2018-09-06T03:41:41.401Z,21.20
2018-09-06T03:44:08.927Z,23.80
2018-09-06T03:46:36.501Z,24.60
2018-09-06T03:49:04.554Z,25.20
2018-09-06T03:51:32.076Z,24.20
2018-09-06T03:53:59.642Z,24.20
2018-09-06T03:56:27.605Z,18.00
2018-09-06T03:58:55.132Z,20.20
2018-09-06T04:01:22.671Z,24.00
2018-09-06T04:03:50.569Z,21.40
2018-09-06T04:06:18.095Z,23.60
2018-09-06T04:08:46.620Z,25.80
2018-09-06T04:11:14.178Z,28.20
2018-09-06T04:13:42.314Z,24.00
2018-09-06T04:16:09.801Z,25.20
2018-09-06T04:18:37.369Z,25.00
2018-09-06T04:21:05.377Z,25.00
2018-09-06T04:23:32.989Z,21.40
2018-09-06T04:26:00.628Z,27.60
2018-09-06T04:28:28.517Z,21.00
2018-09-06T04:30:56.102Z,22.00
2018-09-06T04:33:23.645Z,25.80
2018-09-06T04:35:51.626Z,23.60
2018-09-06T04:38:19.130Z,22.60
2018-09-06T04:40:46.671Z,22.00
2018-09-06T04:43:15.434Z,24.00
2018-09-06T04:45:43.661Z,24.80
2018-09-06T04:48:11.173Z,14.60
2018-09-06T04:50:39.018Z,25.00
2018-09-06T04:53:06.538Z,22.80
2018-09-06T04:55:34.042Z,30.80
2018-09-06T04:58:01.910Z,21.60
2018-09-06T05:00:29.462Z,25.40
2018-09-06T05:02:57.781Z,25.00
2018-09-06T05:05:25.740Z,23.40
2018-09-06T05:07:53.274Z,27.00
2018-09-06T05:10:21.794Z,24.00
2018-09-06T05:12:49.726Z,26.40
2018-09-06T05:15:17.334Z,26.60
2018-09-06T05:17:44.893Z,29.40
2018-09-06T05:20:12.739Z,29.20
2018-09-06T05:22:40.269Z,19.80
2018-09-06T05:25:09.538Z,24.80
2018-09-06T05:27:37.450Z,24.20
2018-09-06T05:30:04.967Z,28.40
2018-09-06T05:32:32.488Z,29.60
2018-09-06T05:35:00.364Z,29.20
2018-09-06T05:37:29.371Z,29.20
2018-09-06T05:39:56.905Z,34.60
2018-09-06T05:42:25.526Z,33.80
2018-09-06T05:44:53.189Z,27.80
2018-09-06T05:47:20.731Z,29.20
2018-09-06T05:49:48.570Z,28.00
2018-09-06T05:52:16.357Z,31.80
2018-09-06T05:54:43.929Z,29.00
2018-09-06T05:57:14.063Z,30.20
2018-09-06T05:59:42.408Z,27.00
2018-09-06T06:02:09.975Z,24.80
2018-09-06T06:04:37.598Z,31.40
2018-09-06T06:07:05.959Z,30.20
2018-09-06T06:09:33.925Z,30.00
2018-09-06T06:12:01.494Z,31.60
2018-09-06T06:14:29.033Z,34.00
2018-09-06T06:16:57.049Z,24.80
2018-09-06T06:19:24.585Z,24.80
2018-09-06T06:21:53.039Z,23.20
2018-09-06T06:24:20.914Z,33.20
2018-09-06T06:26:48.460Z,26.20
2018-09-06T06:29:15.991Z,33.20
2018-09-06T06:31:43.930Z,27.80
2018-09-06T06:34:11.475Z,24.20
2018-09-06T06:36:39.001Z,27.00
2018-09-06T06:39:07.056Z,30.00
2018-09-06T06:41:34.622Z,26.60
2018-09-06T06:44:02.159Z,25.80
2018-09-06T06:46:29.966Z,30.60
2018-09-06T06:48:57.477Z,34.60
2018-09-06T06:51:24.990Z,27.20
2018-09-06T06:53:54.265Z,36.00
2018-09-06T06:56:21.825Z,31.80
2018-09-06T06:58:49.378Z,34.00
2018-09-06T07:01:18.140Z,30.80
2018-09-06T07:03:45.658Z,28.80
2018-09-06T07:06:13.237Z,30.20
2018-09-06T07:08:41.950Z,34.60
2018-09-06T07:11:09.507Z,30.60
2018-09-06T07:13:37.038Z,30.00
2018-09-06T07:16:04.938Z,28.60
2018-09-06T07:18:32.562Z,32.60
2018-09-06T07:21:00.190Z,31.80
2018-09-06T07:23:28.079Z,32.40
2018-09-06T07:25:55.658Z,27.00
2018-09-06T07:28:25.324Z,28.40
2018-09-06T07:30:54.231Z,29.60
2018-09-06T07:33:22.727Z,29.00
2018-09-06T07:35:51.291Z,30.80
2018-09-06T07:38:19.241Z,25.80
2018-09-06T07:40:48.630Z,28.60
2018-09-06T07:43:16.197Z,30.60
2018-09-06T07:45:45.650Z,27.40
2018-09-06T07:48:14.102Z,27.20
2018-09-06T07:50:42.271Z,28.00
2018-09-06T07:53:10.269Z,27.40
2018-09-06T07:55:37.799Z,22.80
2018-09-06T08:00:46.208Z,29.00
2018-09-06T08:03:17.393Z,27.20
2018-09-06T08:05:45.423Z,26.60
2018-09-06T08:08:13.011Z,18.60
2018-09-06T08:10:40.669Z,29.40
2018-09-06T08:13:09.331Z,33.40
2018-09-06T08:15:37.268Z,27.80
2018-09-06T08:18:05.846Z,31.40
2018-09-06T08:20:33.892Z,27.20
2018-09-06T08:23:01.844Z,28.20
2018-09-06T08:25:29.405Z,22.40
2018-09-06T08:27:57.387Z,23.60
2018-09-06T08:30:25.137Z,29.20
2018-09-06T08:32:53.899Z,26.40
2018-09-06T08:35:21.908Z,27.20
2018-09-06T08:37:49.558Z,16.00
2018-09-06T08:40:17.619Z,26.20
2018-09-06T08:42:45.510Z,22.80
2018-09-06T08:45:14.099Z,24.40
2018-09-06T08:47:43.136Z,28.80
2018-09-06T08:50:11.066Z,26.40
2018-09-06T08:52:39.628Z,24.40
2018-09-06T08:55:08.070Z,24.80
2018-09-06T08:57:36.663Z,23.80
2018-09-06T09:00:06.585Z,20.40
2018-09-06T09:02:34.168Z,12.00
2018-09-06T09:05:02.242Z,23.20
2018-09-06T09:07:29.835Z,17.60
2018-09-06T09:09:59.226Z,22.20
2018-09-06T09:12:27.170Z,17.80
2018-09-06T09:14:56.141Z,15.60
2018-09-06T09:17:23.682Z,15.20
2018-09-06T09:19:53.079Z,17.40
2018-09-06T09:22:20.730Z,16.00
2018-09-06T09:24:48.213Z,15.00
2018-09-06T09:27:16.115Z,20.00
2018-09-06T09:29:44.261Z,15.00
2018-09-06T09:32:11.832Z,17.00
2018-09-06T09:34:39.818Z,19.40
2018-09-06T09:37:07.371Z,17.20
2018-09-06T09:39:35.755Z,22.80
2018-09-06T09:42:04.362Z,17.40
2018-09-06T09:44:31.890Z,21.20
2018-09-06T09:49:28.034Z,20.80
2018-09-06T09:51:55.778Z,17.00
2018-09-06T09:54:23.331Z,23.60
2018-09-06T09:56:51.255Z,22.60
2018-09-06T09:59:18.785Z,22.80
2018-09-06T10:01:51.352Z,22.60
2018-09-06T10:04:24.305Z,20.40
2018-09-06T10:06:56.817Z,24.80
2018-09-06T10:09:26.891Z,26.80
2018-09-06T10:11:54.405Z,22.00
2018-09-06T10:14:22.873Z,24.20
2018-09-06T10:16:50.786Z,22.00
2018-09-06T10:19:19.330Z,24.80
2018-09-06T10:21:47.114Z,27.40
2018-09-06T10:24:15.955Z,23.40
2018-09-06T10:26:43.599Z,27.00
2018-09-06T10:29:11.166Z,24.80
2018-09-06T10:31:39.078Z,25.00
2018-09-06T10:34:07.277Z,25.40
2018-09-06T10:36:34.987Z,25.00
2018-09-06T10:39:03.839Z,26.00
2018-09-06T10:41:32.407Z,25.00
2018-09-06T10:44:00.329Z,28.80
2018-09-06T10:46:28.228Z,27.20
2018-09-06T10:48:55.741Z,26.60
2018-09-06T10:51:24.390Z,27.80
2018-09-06T10:53:54.183Z,32.60
2018-09-06T10:56:22.470Z,28.60
2018-09-06T10:58:50.019Z,25.60
2018-09-06T11:01:22.566Z,34.20
2018-09-06T11:03:50.223Z,36.00
2018-09-06T11:06:18.435Z,27.40
2018-09-06T11:08:46.558Z,27.40
2018-09-06T11:11:14.111Z,35.00
2018-09-06T11:13:41.714Z,31.40
2018-09-06T11:16:10.555Z,29.20
2018-09-06T11:18:38.121Z,32.60
2018-09-06T11:21:05.697Z,32.20
2018-09-06T11:23:34.668Z,37.80
2018-09-06T11:26:02.224Z,34.60
2018-09-06T11:28:30.782Z,40.20
2018-09-06T11:30:58.661Z,37.00
2018-09-06T11:33:28.298Z,35.60
2018-09-06T11:35:56.869Z,40.20
2018-09-06T11:38:24.383Z,32.20
2018-09-06T11:40:51.931Z,33.60
2018-09-06T11:43:19.910Z,36.20
2018-09-06T11:45:47.522Z,35.60
2018-09-06T11:48:15.797Z,38.60
2018-09-06T11:50:43.781Z,41.40
2018-09-06T11:53:11.842Z,40.40
2018-09-06T11:55:39.394Z,35.80
2018-09-06T11:58:07.406Z,37.80
2018-09-06T12:00:38.798Z,40.60
2018-09-06T12:03:07.471Z,37.00
2018-09-06T12:05:35.324Z,42.20
2018-09-06T12:08:03.698Z,45.20
2018-09-06T12:10:31.863Z,38.60
2018-09-06T12:13:00.192Z,36.00
2018-09-06T12:15:28.342Z,32.20
2018-09-06T12:17:56.903Z,37.60
2018-09-06T12:20:25.388Z,35.00
2018-09-06T12:22:54.318Z,33.00
2018-09-06T12:25:21.904Z,36.80
2018-09-06T12:27:49.871Z,40.00
2018-09-06T12:30:17.411Z,36.00
2018-09-06T12:32:45.767Z,38.00
2018-09-06T12:35:13.607Z,33.00
2018-09-06T12:37:41.166Z,32.40
2018-09-06T12:40:09.467Z,31.80
2018-09-06T12:42:37.297Z,25.40
2018-09-06T12:45:04.848Z,25.20
2018-09-06T12:47:32.608Z,12.00
2018-09-06T12:50:01.060Z,28.40
2018-09-06T12:52:29.605Z,28.20
2018-09-06T12:54:57.609Z,29.00
2018-09-06T12:57:25.418Z,22.60
2018-09-06T12:59:52.929Z,25.20
2018-09-06T13:02:20.510Z,20.40
2018-09-06T13:04:49.923Z,26.40
2018-09-06T13:07:22.770Z,23.60
2018-09-06T13:09:51.111Z,23.80
2018-09-06T13:12:23.133Z,17.80
2018-09-06T13:14:50.705Z,23.80
2018-09-06T13:17:21.021Z,18.00
2018-09-06T13:19:49.761Z,21.80
2018-09-06T13:22:17.560Z,21.60
2018-09-06T13:24:45.625Z,19.00
2018-09-06T13:27:13.221Z,20.60
2018-09-06T13:29:40.811Z,20.20
2018-09-06T13:32:08.978Z,20.80
2018-09-06T13:34:36.578Z,20.20
2018-09-06T13:37:04.483Z,20.80
2018-09-06T13:39:32.500Z,19.80
2018-09-06T13:42:00.831Z,22.00
2018-09-06T13:44:30.016Z,23.20
2018-09-06T13:46:58.891Z,24.40
2018-09-06T13:49:26.488Z,26.20
2018-09-06T13:51:54.105Z,23.80
2018-09-06T13:54:22.375Z,22.00
2018-09-06T13:56:51.499Z,21.80
2018-09-06T13:59:19.515Z,26.20
2018-09-06T14:01:48.374Z,22.20
2018-09-06T14:04:15.946Z,26.80
2018-09-06T14:06:43.485Z,28.60
2018-09-06T14:09:12.133Z,26.00
2018-09-06T14:11:39.702Z,28.80
2018-09-06T14:14:07.309Z,27.40
2018-09-06T14:16:36.014Z,25.80
2018-09-06T14:19:04.160Z,25.20
2018-09-06T14:21:32.699Z,23.00
2018-09-06T14:24:00.562Z,27.00
2018-09-06T14:26:29.333Z,25.20
2018-09-06T14:28:57.455Z,28.40
2018-09-06T14:31:25.709Z,24.80
2018-09-06T14:33:54.218Z,30.60
2018-09-06T14:36:23.780Z,27.00
2018-09-06T14:38:51.480Z,26.40
2018-09-06T14:41:19.034Z,31.60
2018-09-06T14:43:48.205Z,29.00
2018-09-06T14:46:16.371Z,31.80
2018-09-06T14:48:43.966Z,26.20
2018-09-06T14:51:13.286Z,30.20
2018-09-06T14:53:40.906Z,32.40
2018-09-06T14:56:08.548Z,31.80
2018-09-06T14:58:37.412Z,31.00
2018-09-06T15:01:05.006Z,32.00
2018-09-06T15:03:32.570Z,30.60
2018-09-06T15:06:01.321Z,40.80
2018-09-06T15:08:28.866Z,30.60
2018-09-06T15:10:58.099Z,33.20
2018-09-06T15:13:27.599Z,30.40
2018-09-06T15:15:55.290Z,30.60
2018-09-06T15:18:23.523Z,25.80
2018-09-06T15:20:51.524Z,37.60
2018-09-06T15:23:19.781Z,39.80
2018-09-06T15:25:47.670Z,39.80
2018-09-06T15:28:17.147Z,36.60
2018-09-06T15:30:44.711Z,35.20
2018-09-06T15:33:12.538Z,32.20
2018-09-06T15:35:40.559Z,33.40
2018-09-06T15:38:08.313Z,29.40
2018-09-06T15:40:36.590Z,34.00
2018-09-06T15:43:04.672Z,29.80
2018-09-06T15:45:32.247Z,34.00
2018-09-06T15:48:00.661Z,31.80
2018-09-06T15:50:28.673Z,34.60
2018-09-06T15:52:56.328Z,36.20
2018-09-06T15:55:23.967Z,29.80
2018-09-06T15:57:52.062Z,31.80
2018-09-06T16:00:19.716Z,29.00
2018-09-06T16:02:47.284Z,35.20
2018-09-06T16:05:17.488Z,35.20
2018-09-06T16:07:45.173Z,31.60
2018-09-06T16:10:13.564Z,35.60
2018-09-06T16:12:42.468Z,37.80
2018-09-06T16:15:11.188Z,33.00
2018-09-06T16:17:40.501Z,34.40
2018-09-06T16:20:08.577Z,33.60
2018-09-06T16:22:36.274Z,33.60
2018-09-06T16:25:07.744Z,38.20
2018-09-06T16:27:36.010Z,38.20
2018-09-06T16:30:03.583Z,33.20
2018-09-06T16:32:31.237Z,33.40
2018-09-06T16:34:59.751Z,35.40
2018-09-06T16:37:27.376Z,38.60
2018-09-06T16:39:56.077Z,36.00
2018-09-06T16:42:25.289Z,37.60
2018-09-06T16:44:52.852Z,42.00
2018-09-06T16:47:20.452Z,37.20
2018-09-06T16:49:48.370Z,36.60
2018-09-06T16:52:16.553Z,35.20
2018-09-06T16:54:44.119Z,39.20
2018-09-06T16:57:13.605Z,28.40
2018-09-06T16:59:41.154Z,39.00
2018-09-06T17:02:08.759Z,40.20
2018-09-06T17:04:37.775Z,39.20
2018-09-06T17:07:05.411Z,31.80
2018-09-06T17:09:33.512Z,39.20
2018-09-06T17:12:01.349Z,40.00
2018-09-06T17:14:29.555Z,42.80
2018-09-06T17:16:57.173Z,45.20
2018-09-06T17:19:25.712Z,42.80
2018-09-06T17:21:53.307Z,41.00
2018-09-06T17:24:24.528Z,35.80
2018-09-06T17:26:54.370Z,42.20
2018-09-06T17:29:25.450Z,34.60
2018-09-06T17:31:53.090Z,42.00
2018-09-06T17:34:20.975Z,39.40
2018-09-06T17:36:48.518Z,43.40
2018-09-06T17:39:16.355Z,41.60
2018-09-06T17:41:44.149Z,46.40
2018-09-06T17:44:11.698Z,43.80
2018-09-06T17:46:40.314Z,45.60
2018-09-06T17:49:08.206Z,46.20
2018-09-06T17:51:38.654Z,41.20
2018-09-06T17:54:07.455Z,46.20
2018-09-06T17:56:39.523Z,39.00
2018-09-06T17:59:08.817Z,44.20
2018-09-06T18:01:40.944Z,39.80
2018-09-06T18:04:10.640Z,45.40
2018-09-06T18:06:38.854Z,47.40
2018-09-06T18:11:47.354Z,48.00
2018-09-06T18:14:16.477Z,49.20
2018-09-06T18:16:45.664Z,49.80
2018-09-06T18:19:15.179Z,47.20
2018-09-06T18:21:42.733Z,48.80
2018-09-06T18:24:10.531Z,49.00
2018-09-06T18:26:39.224Z,47.60
2018-09-06T18:29:07.480Z,51.80
2018-09-06T18:34:09.691Z,48.80
2018-09-06T18:36:40.662Z,49.00
2018-09-06T18:39:10.628Z,44.20
2018-09-06T18:41:39.653Z,43.00
2018-09-06T18:44:07.322Z,47.40
2018-09-06T18:46:35.705Z,44.40
2018-09-06T18:49:04.666Z,48.40
2018-09-06T18:51:33.930Z,42.80
2018-09-06T18:54:01.490Z,47.40
2018-09-06T18:56:30.527Z,44.00
2018-09-06T18:58:58.234Z,42.20
2018-09-06T19:01:26.419Z,45.60
2018-09-06T19:03:54.264Z,43.60
2018-09-06T19:06:23.938Z,40.40
2018-09-06T19:08:52.463Z,47.00
2018-09-06T19:11:21.048Z,48.00
2018-09-06T19:13:50.058Z,45.80
2018-09-06T19:16:17.707Z,45.80
2018-09-06T19:18:48.254Z,45.60
2018-09-06T19:21:16.745Z,47.00
2018-09-06T19:23:44.384Z,47.20
2018-09-06T19:26:13.925Z,48.60
2018-09-06T19:28:42.076Z,48.00
2018-09-06T19:31:10.747Z,43.80
2018-09-06T19:33:39.673Z,48.60
2018-09-06T19:36:08.033Z,48.20
2018-09-06T19:38:35.639Z,46.80
2018-09-06T19:41:05.353Z,42.20
2018-09-06T19:43:32.871Z,21.00
2018-09-06T19:46:01.256Z,50.40
2018-09-06T19:48:32.032Z,47.00
2018-09-06T19:51:00.225Z,47.20
2018-09-06T19:53:29.230Z,48.00
2018-09-06T19:55:57.177Z,45.00
2018-09-06T19:58:24.801Z,46.80
2018-09-06T20:00:52.501Z,43.40
2018-09-06T20:03:21.196Z,32.20
2018-09-06T20:05:48.740Z,42.20
2018-09-06T20:08:21.210Z,39.40
2018-09-06T20:10:51.260Z,42.00
2018-09-06T20:13:19.795Z,35.40
2018-09-06T20:15:47.360Z,37.00
2018-09-06T20:18:15.899Z,32.20
2018-09-06T20:20:43.694Z,26.60
2018-09-06T20:23:12.892Z,30.80
2018-09-06T20:25:41.800Z,29.80
2018-09-06T20:28:10.456Z,30.20
2018-09-06T20:30:40.060Z,29.60
2018-09-06T20:33:09.435Z,33.60
2018-09-06T20:35:39.619Z,25.20
2018-09-06T20:38:10.160Z,27.20
2018-09-06T20:40:41.866Z,23.60
2018-09-06T20:43:10.293Z,28.20
2018-09-06T20:45:37.869Z,30.20
2018-09-06T20:48:06.484Z,30.20
2018-09-06T20:50:34.330Z,26.00
2018-09-06T20:53:01.878Z,26.40
2018-09-06T20:55:29.918Z,28.00
2018-09-06T20:57:57.483Z,24.00
2018-09-06T21:00:25.940Z,25.60
2018-09-06T21:02:53.508Z,26.60
2018-09-06T21:05:21.058Z,24.60
2018-09-06T21:07:49.878Z,21.80
2018-09-06T21:10:17.418Z,22.80
2018-09-06T21:12:45.566Z,24.60
2018-09-06T21:15:13.611Z,24.40
2018-09-06T21:17:42.014Z,29.20
2018-09-06T21:20:09.635Z,26.20
2018-09-06T21:22:38.569Z,26.20
2018-09-06T21:25:06.920Z,23.20
2018-09-06T21:27:35.440Z,29.60
2018-09-06T21:30:03.479Z,24.80
2018-09-06T21:32:31.099Z,28.20
2018-09-06T21:34:58.714Z,23.40
2018-09-06T21:37:26.731Z,29.60
2018-09-06T21:39:55.135Z,20.20
2018-09-06T21:42:22.647Z,25.40
2018-09-06T21:44:51.162Z,30.40
2018-09-06T21:47:18.759Z,27.00
2018-09-06T21:49:46.297Z,25.20
2018-09-06T21:52:14.479Z,26.00
2018-09-06T21:54:42.557Z,24.20
2018-09-06T21:57:10.129Z,22.80
2018-09-06T21:59:37.878Z,25.20
2018-09-06T22:02:06.482Z,27.80
2018-09-06T22:04:34.100Z,32.40
2018-09-06T22:07:03.107Z,24.00
2018-09-06T22:09:31.865Z,26.00
2018-09-06T22:11:59.428Z,24.20
2018-09-06T22:14:27.036Z,29.60
2018-09-06T22:16:54.987Z,33.40
2018-09-06T22:19:22.524Z,20.00
2018-09-06T22:21:51.093Z,22.40
2018-09-06T22:24:18.906Z,18.80
2018-09-06T22:26:46.950Z,25.80
2018-09-06T22:29:15.610Z,30.60
2018-09-06T22:31:43.233Z,29.60
2018-09-06T22:34:10.823Z,32.00
2018-09-06T22:36:38.431Z,25.80
2018-09-06T22:39:08.355Z,22.40
2018-09-06T22:41:35.894Z,28.00
2018-09-06T22:44:03.455Z,25.80
2018-09-06T22:46:31.437Z,25.00
2018-09-06T22:48:59.036Z,25.40
2018-09-06T22:51:27.747Z,27.20
2018-09-06T22:53:55.567Z,21.80
2018-09-06T22:56:23.842Z,23.60
2018-09-06T22:58:51.361Z,16.20
2018-09-06T23:01:18.925Z,19.40
2018-09-06T23:03:50.527Z,19.00
2018-09-06T23:06:18.126Z,21.80
2018-09-06T23:08:45.642Z,21.40
2018-09-06T23:11:14.378Z,20.60
2018-09-06T23:13:41.894Z,15.80
2018-09-06T23:16:09.757Z,20.60
2018-09-06T23:18:37.640Z,16.00
2018-09-06T23:21:05.218Z,21.80
2018-09-06T23:23:32.750Z,23.00
2018-09-06T23:26:00.382Z,22.20
2018-09-06T23:28:28.279Z,24.00
2018-09-06T23:30:56.096Z,24.20
2018-09-06T23:33:23.676Z,12.80
2018-09-06T23:35:51.466Z,21.40
2018-09-06T23:38:20.082Z,17.00
2018-09-06T23:40:52.633Z,15.20
2018-09-06T23:43:21.460Z,17.60
2018-09-06T23:45:52.436Z,20.20
2018-09-06T23:48:21.896Z,9.60
2018-09-06T23:50:50.403Z,22.80
2018-09-06T23:53:18.304Z,18.20
2018-09-06T23:55:45.789Z,22.80
2018-09-06T23:58:13.349Z,15.80
